Time;durP1;ratioP1;P1;durP2;ratioP2;P2;SDS_P1;SDS_P2;PMS_P1;PMS_P2;Temp;Humidity;BMP_temperature;BMP_pressure;BME280_temperature;BME280_humidity;BME280_pressure;Samples;Min_cycle;Max_cycle;Signal;HPM_P1;HPM_P2
2022/03/17 00:01:41;;;;;;;;;;;4.60;99.90;;;;;;4186563;28;19928;-54
2022/03/17 00:03:45;;;;;;;;;;;4.70;99.90;;;;;;4195565;28;19925;-54
2022/03/17 00:05:47;;;;;;;;;;;4.70;99.90;;;;;;4194966;28;19929;-54
2022/03/17 00:07:49;;;;;;;;;;;4.70;99.90;;;;;;4195575;28;19931;-52
2022/03/17 00:09:51;;;;;;;;;;;4.70;99.90;;;;;;4195420;28;20335;-54
2022/03/17 00:11:53;;;;;;;;;;;4.70;99.90;;;;;;4195598;28;19931;-54
2022/03/17 00:13:55;;;;;;;;;;;4.70;99.90;;;;;;4195298;28;20198;-54
2022/03/17 00:15:57;;;;;;;;;;;4.70;99.90;;;;;;4195495;28;20007;-53
2022/03/17 00:17:59;;;;;;;;;;;4.50;99.90;;;;;;4195006;28;19924;-54
2022/03/17 00:20:02;;;;;;;;;;;4.50;99.90;;;;;;4195143;28;20027;-53
2022/03/17 00:22:06;;;;;;;;;;;4.60;99.90;;;;;;4195631;28;19924;-54
2022/03/17 00:24:08;;;;;;;;;;;4.60;99.90;;;;;;4195063;28;19971;-54
2022/03/17 00:26:11;;;;;;;;;;;4.60;99.90;;;;;;4195879;28;19963;-53
2022/03/17 00:28:13;;;;;;;;;;;4.60;99.90;;;;;;4195054;28;19964;-54
2022/03/17 00:30:15;;;;;;;;;;;4.50;99.90;;;;;;4194965;28;20354;-53
2022/03/17 00:32:17;;;;;;;;;;;4.50;99.90;;;;;;4195420;28;19964;-54
2022/03/17 00:34:19;;;;;;;;;;;4.50;99.90;;;;;;4194634;28;19925;-53
2022/03/17 00:36:21;;;;;;;;;;;4.40;99.90;;;;;;4194995;28;19978;-54
2022/03/17 00:38:23;;;;;;;;;;;4.40;99.90;;;;;;4195107;28;19924;-54
2022/03/17 00:40:25;;;;;;;;;;;4.40;99.90;;;;;;4194920;28;19980;-54
2022/03/17 00:42:29;;;;;;;;;;;4.40;99.90;;;;;;4193845;28;19924;-54
2022/03/17 00:44:31;;;;;;;;;;;4.30;99.90;;;;;;4194550;28;20289;-53
2022/03/17 00:46:33;;;;;;;;;;;4.20;99.90;;;;;;4195173;28;19964;-53
2022/03/17 00:48:35;;;;;;;;;;;4.20;99.90;;;;;;4193707;28;19936;-54
2022/03/17 00:50:37;;;;;;;;;;;4.20;99.90;;;;;;4194807;28;19959;-54
2022/03/17 00:52:39;;;;;;;;;;;4.20;99.90;;;;;;4195062;28;19950;-54
2022/03/17 00:54:42;;;;;;;;;;;4.30;99.90;;;;;;4194924;28;20530;-53
2022/03/17 00:56:43;;;;;;;;;;;4.30;99.90;;;;;;4195009;28;20293;-53
2022/03/17 00:58:48;;;;;;;;;;;4.20;99.90;;;;;;4194982;28;19982;-55
2022/03/17 01:00:51;;;;;;;;;;;4.30;99.90;;;;;;4194876;28;19928;-54
2022/03/17 01:02:54;;;;;;;;;;;4.10;99.90;;;;;;4195147;28;20438;-54
2022/03/17 01:04:56;;;;;;;;;;;4.20;99.90;;;;;;4194549;28;20072;-54
2022/03/17 01:06:58;;;;;;;;;;;4.20;99.90;;;;;;4194895;28;20019;-54
2022/03/17 01:09:00;;;;;;;;;;;4.30;99.90;;;;;;4194722;28;19932;-54
2022/03/17 01:11:02;;;;;;;;;;;4.20;99.90;;;;;;4194726;28;19981;-54
2022/03/17 01:13:05;;;;;;;;;;;4.20;99.90;;;;;;4178317;28;19925;-53
2022/03/17 01:15:07;;;;;;;;;;;4.30;99.90;;;;;;4193351;28;19970;-54
2022/03/17 01:17:09;;;;;;;;;;;4.20;99.90;;;;;;4195107;28;20023;-53
2022/03/17 01:19:11;;;;;;;;;;;4.20;99.90;;;;;;4193982;28;19963;-54
2022/03/17 01:21:13;;;;;;;;;;;4.30;99.90;;;;;;4195015;28;20393;-54
2022/03/17 01:23:14;;;;;;;;;;;4.30;99.90;;;;;;4195238;28;19970;-53
2022/03/17 01:25:16;;;;;;;;;;;4.30;99.90;;;;;;4194634;28;20286;-51
2022/03/17 01:27:20;;;;;;;;;;;4.20;99.90;;;;;;4194469;28;19963;-53
2022/03/17 01:29:22;;;;;;;;;;;4.20;99.90;;;;;;4194535;28;20330;-52
2022/03/17 01:31:24;;;;;;;;;;;4.30;99.90;;;;;;4187486;28;19948;-54
2022/03/17 01:33:26;;;;;;;;;;;4.30;99.90;;;;;;4194600;28;20295;-53
2022/03/17 01:35:28;;;;;;;;;;;4.30;99.90;;;;;;4194790;28;20400;-53
2022/03/17 01:37:29;;;;;;;;;;;4.30;99.90;;;;;;4194543;28;20565;-52
2022/03/17 01:39:31;;;;;;;;;;;4.30;99.90;;;;;;4194456;28;19924;-50
2022/03/17 01:41:34;;;;;;;;;;;4.20;99.90;;;;;;4194581;28;20385;-52
2022/03/17 01:43:35;;;;;;;;;;;4.20;99.90;;;;;;4193790;28;19990;-53
2022/03/17 01:45:37;;;;;;;;;;;4.10;99.90;;;;;;4193217;28;20224;-53
2022/03/17 01:47:39;;;;;;;;;;;4.10;99.90;;;;;;4193794;28;20289;-52
2022/03/17 01:49:41;;;;;;;;;;;3.90;99.90;;;;;;4194297;28;19924;-52
2022/03/17 01:51:45;;;;;;;;;;;3.90;99.90;;;;;;4194293;28;19928;-52
2022/03/17 01:53:47;;;;;;;;;;;3.90;99.90;;;;;;4196058;28;20300;-52
2022/03/17 01:55:49;;;;;;;;;;;4.00;99.90;;;;;;4197679;28;19924;-51
2022/03/17 01:57:51;;;;;;;;;;;4.00;99.90;;;;;;4196553;28;20673;-53
2022/03/17 01:59:53;;;;;;;;;;;3.90;99.90;;;;;;4197568;28;20006;-52
2022/03/17 02:01:56;;;;;;;;;;;3.90;99.90;;;;;;4198032;28;19924;-53
2022/03/17 02:03:58;;;;;;;;;;;3.80;99.90;;;;;;4197136;28;19986;-54
2022/03/17 02:06:00;;;;;;;;;;;3.80;99.90;;;;;;4197384;28;20027;-53
2022/03/17 02:08:02;;;;;;;;;;;3.80;99.90;;;;;;4195998;28;19925;-53
2022/03/17 02:10:05;;;;;;;;;;;3.80;99.90;;;;;;4197695;28;19974;-53
2022/03/17 02:14:28;;;;;;;;;;;3.80;99.90;;;;;;4197252;28;20454;-53
2022/03/17 02:16:30;;;;;;;;;;;3.90;99.90;;;;;;4197287;28;19977;-54
2022/03/17 02:18:32;;;;;;;;;;;3.90;99.90;;;;;;4196560;28;19963;-53
2022/03/17 02:20:35;;;;;;;;;;;3.90;99.90;;;;;;4197535;28;19931;-53
2022/03/17 02:22:40;;;;;;;;;;;3.90;99.90;;;;;;4197122;28;20412;-53
2022/03/17 02:27:03;;;;;;;;;;;4.00;99.90;;;;;;4197438;28;19928;-54
2022/03/17 02:29:05;;;;;;;;;;;4.00;99.90;;;;;;4196918;28;19948;-54
2022/03/17 02:31:07;;;;;;;;;;;4.00;99.90;;;;;;4208666;28;19979;-54
2022/03/17 02:33:10;;;;;;;;;;;4.00;99.90;;;;;;4197195;28;19924;-54
2022/03/17 02:35:22;;;;;;;;;;;4.10;99.90;;;;;;4196780;28;20332;-53
2022/03/17 02:37:24;;;;;;;;;;;4.10;99.90;;;;;;4197504;28;19932;-53
2022/03/17 02:39:26;;;;;;;;;;;4.10;99.90;;;;;;4196991;28;19986;-54
2022/03/17 02:41:28;;;;;;;;;;;4.10;99.90;;;;;;4196857;28;19924;-54
2022/03/17 02:43:29;;;;;;;;;;;4.10;99.90;;;;;;4196762;28;19925;-54
2022/03/17 02:45:32;;;;;;;;;;;4.00;99.90;;;;;;4196754;28;19994;-53
2022/03/17 02:47:34;;;;;;;;;;;4.00;99.90;;;;;;4196871;28;19958;-53
2022/03/17 02:49:36;;;;;;;;;;;3.90;99.90;;;;;;4180939;28;19928;-54
2022/03/17 02:51:38;;;;;;;;;;;3.90;99.90;;;;;;4196975;28;19994;-54
2022/03/17 02:53:39;;;;;;;;;;;3.90;99.90;;;;;;4196604;28;19924;-53
2022/03/17 02:55:42;;;;;;;;;;;3.90;99.90;;;;;;4197178;28;19928;-54
2022/03/17 02:57:45;;;;;;;;;;;3.90;99.90;;;;;;4196615;28;19924;-53
2022/03/17 02:59:48;;;;;;;;;;;3.80;99.90;;;;;;4196782;28;19924;-52
2022/03/17 03:01:50;;;;;;;;;;;3.60;99.90;;;;;;4196996;28;19974;-53
2022/03/17 03:03:53;;;;;;;;;;;3.60;99.90;;;;;;4196230;28;20591;-53
2022/03/17 03:05:55;;;;;;;;;;;3.50;99.90;;;;;;4196289;28;19924;-52
2022/03/17 03:07:57;;;;;;;;;;;3.50;99.90;;;;;;4196543;28;19924;-53
2022/03/17 03:09:59;;;;;;;;;;;3.40;99.90;;;;;;4196442;28;20348;-54
2022/03/17 03:12:02;;;;;;;;;;;3.40;99.90;;;;;;4197029;28;19931;-53
2022/03/17 03:14:06;;;;;;;;;;;3.30;99.90;;;;;;4196611;28;19928;-53
2022/03/17 03:16:08;;;;;;;;;;;3.20;99.90;;;;;;4196622;28;19924;-54
2022/03/17 03:18:10;;;;;;;;;;;3.30;99.90;;;;;;4196106;28;19936;-53
2022/03/17 03:20:12;;;;;;;;;;;3.30;99.90;;;;;;4196103;28;19928;-54
2022/03/17 03:22:14;;;;;;;;;;;3.50;99.90;;;;;;4196059;28;19929;-51
2022/03/17 03:24:16;;;;;;;;;;;3.50;99.90;;;;;;4194974;28;19964;-54
2022/03/17 03:26:18;;;;;;;;;;;3.60;99.90;;;;;;4195190;28;19951;-53
2022/03/17 03:28:20;;;;;;;;;;;3.50;99.90;;;;;;4195186;28;19924;-54
2022/03/17 03:30:22;;;;;;;;;;;3.40;99.90;;;;;;4195161;28;19924;-54
2022/03/17 03:32:25;;;;;;;;;;;3.40;99.90;;;;;;4195791;28;19931;-52
2022/03/17 03:34:27;;;;;;;;;;;3.30;99.90;;;;;;4195698;28;19977;-54
2022/03/17 03:39:03;;;;;;;;;;;3.30;99.90;;;;;;4185666;28;19928;-53
2022/03/17 03:41:05;;;;;;;;;;;3.30;99.90;;;;;;4185703;28;20406;-53
2022/03/17 03:43:07;;;;;;;;;;;3.30;99.90;;;;;;4195828;28;20403;-53
2022/03/17 03:45:09;;;;;;;;;;;3.30;99.90;;;;;;4195570;28;19925;-54
2022/03/17 03:47:11;;;;;;;;;;;3.20;99.90;;;;;;4196266;28;19960;-54
2022/03/17 03:49:13;;;;;;;;;;;3.30;99.90;;;;;;4195488;28;19931;-53
2022/03/17 03:51:15;;;;;;;;;;;3.40;99.90;;;;;;4194669;28;19928;-50
2022/03/17 03:53:17;;;;;;;;;;;3.50;99.90;;;;;;4196151;28;19939;-52
2022/03/17 03:55:19;;;;;;;;;;;3.50;99.90;;;;;;4195587;28;19964;-54
2022/03/17 03:57:21;;;;;;;;;;;3.40;99.90;;;;;;4195850;28;19964;-53
2022/03/17 03:59:24;;;;;;;;;;;3.50;99.90;;;;;;4195691;28;19970;-52
2022/03/17 04:01:26;;;;;;;;;;;3.50;99.90;;;;;;4195715;28;19950;-54
2022/03/17 04:03:28;;;;;;;;;;;3.50;99.90;;;;;;4195712;28;19955;-53
2022/03/17 04:05:33;;;;;;;;;;;3.50;99.90;;;;;;4179035;28;19925;-53
2022/03/17 04:07:35;;;;;;;;;;;3.60;99.90;;;;;;4195482;28;20308;-52
2022/03/17 04:09:39;;;;;;;;;;;3.50;99.90;;;;;;4196380;28;19929;-53
2022/03/17 04:11:42;;;;;;;;;;;3.60;99.90;;;;;;4195537;28;19935;-54
2022/03/17 04:13:44;;;;;;;;;;;3.50;99.90;;;;;;4195553;28;19925;-53
2022/03/17 04:15:45;;;;;;;;;;;3.50;99.90;;;;;;4195131;28;19931;-54
2022/03/17 04:17:49;;;;;;;;;;;3.50;99.90;;;;;;4194888;28;19935;-54
2022/03/17 04:19:51;;;;;;;;;;;3.40;99.90;;;;;;4195144;28;20306;-55
2022/03/17 04:21:53;;;;;;;;;;;3.40;99.90;;;;;;4195630;28;20273;-53
2022/03/17 04:23:55;;;;;;;;;;;3.40;99.90;;;;;;4191850;28;19947;-53
2022/03/17 04:25:57;;;;;;;;;;;3.40;99.90;;;;;;4195328;28;19942;-54
2022/03/17 04:27:58;;;;;;;;;;;3.40;99.90;;;;;;4195678;28;19924;-53
2022/03/17 04:30:00;;;;;;;;;;;3.40;99.90;;;;;;4195295;28;19934;-54
2022/03/17 04:32:02;;;;;;;;;;;3.40;99.90;;;;;;4195290;28;20373;-52
2022/03/17 04:34:04;;;;;;;;;;;3.30;99.90;;;;;;4195217;28;20386;-53
2022/03/17 04:36:07;;;;;;;;;;;3.20;99.90;;;;;;4195351;28;19928;-53
2022/03/17 04:38:09;;;;;;;;;;;3.10;99.90;;;;;;4195303;28;19928;-53
2022/03/17 04:40:11;;;;;;;;;;;3.10;99.90;;;;;;4195025;28;19931;-54
2022/03/17 04:42:13;;;;;;;;;;;3.10;99.90;;;;;;4195434;28;19924;-53
2022/03/17 04:44:15;;;;;;;;;;;3.10;99.90;;;;;;4195514;28;19930;-53
2022/03/17 04:46:17;;;;;;;;;;;3.20;99.90;;;;;;4194928;28;19932;-53
2022/03/17 04:48:19;;;;;;;;;;;3.30;99.90;;;;;;4194811;28;19959;-54
2022/03/17 04:50:20;;;;;;;;;;;3.30;99.90;;;;;;4195188;28;19935;-54
2022/03/17 04:54:42;;;;;;;;;;;3.30;99.90;;;;;;4195045;28;19924;-53
2022/03/17 04:56:44;;;;;;;;;;;3.40;99.90;;;;;;4195372;28;19939;-53
2022/03/17 04:58:46;;;;;;;;;;;3.60;99.90;;;;;;4194967;28;19936;-52
2022/03/17 05:00:48;;;;;;;;;;;3.70;99.90;;;;;;4195079;28;19964;-52
2022/03/17 05:02:50;;;;;;;;;;;3.70;99.90;;;;;;4194055;28;20308;-53
2022/03/17 05:04:52;;;;;;;;;;;3.60;99.90;;;;;;4194733;28;19959;-53
2022/03/17 05:06:54;;;;;;;;;;;3.50;99.90;;;;;;4195054;28;19932;-53
2022/03/17 05:08:56;;;;;;;;;;;3.50;99.90;;;;;;4194959;28;19931;-53
2022/03/17 05:10:58;;;;;;;;;;;3.50;99.90;;;;;;4194724;28;19932;-53
2022/03/17 05:13:00;;;;;;;;;;;3.50;99.90;;;;;;4194975;28;20023;-54
2022/03/17 05:15:02;;;;;;;;;;;3.40;99.90;;;;;;4194917;28;19924;-52
2022/03/17 05:17:04;;;;;;;;;;;3.30;99.90;;;;;;4195111;28;19978;-53
2022/03/17 05:19:05;;;;;;;;;;;3.30;99.90;;;;;;4193667;28;20281;-53
2022/03/17 05:21:07;;;;;;;;;;;3.30;99.90;;;;;;4195083;28;19932;-52
2022/03/17 05:23:10;;;;;;;;;;;3.40;99.90;;;;;;4194709;28;19924;-53
2022/03/17 05:25:12;;;;;;;;;;;3.40;99.90;;;;;;4194945;28;19975;-54
2022/03/17 05:27:14;;;;;;;;;;;3.30;99.90;;;;;;4194897;28;19928;-52
2022/03/17 05:29:16;;;;;;;;;;;3.40;99.90;;;;;;4197904;28;19936;-54
2022/03/17 05:31:18;;;;;;;;;;;3.70;99.90;;;;;;4198327;28;19928;-54
2022/03/17 05:33:21;;;;;;;;;;;3.70;99.90;;;;;;4197938;28;20369;-53
2022/03/17 05:35:23;;;;;;;;;;;3.60;99.90;;;;;;4197571;28;20011;-54
2022/03/17 05:37:25;;;;;;;;;;;3.50;99.90;;;;;;4198066;28;19931;-53
2022/03/17 05:39:27;;;;;;;;;;;3.60;99.90;;;;;;4197508;28;19928;-53
2022/03/17 05:41:29;;;;;;;;;;;3.60;99.90;;;;;;4198184;28;19931;-52
2022/03/17 05:43:31;;;;;;;;;;;3.60;99.90;;;;;;4197789;28;20520;-54
2022/03/17 05:45:34;;;;;;;;;;;3.50;99.90;;;;;;4197147;28;19928;-52
2022/03/17 05:47:37;;;;;;;;;;;3.50;99.90;;;;;;4196278;28;19978;-54
2022/03/17 05:49:39;;;;;;;;;;;3.50;99.90;;;;;;4196792;28;20388;-54
2022/03/17 05:51:41;;;;;;;;;;;3.70;99.90;;;;;;4197962;28;19931;-52
2022/03/17 05:53:43;;;;;;;;;;;3.60;99.90;;;;;;4198014;28;20346;-53
2022/03/17 05:55:45;;;;;;;;;;;3.80;99.90;;;;;;4197747;28;19939;-54
2022/03/17 05:57:48;;;;;;;;;;;3.90;99.90;;;;;;4197865;28;19929;-53
2022/03/17 05:59:50;;;;;;;;;;;3.90;99.90;;;;;;4197533;28;19935;-54
2022/03/17 06:01:52;;;;;;;;;;;3.70;99.90;;;;;;4197592;28;19932;-53
2022/03/17 06:04:13;;;;;;;;;;;3.60;99.90;;;;;;4197608;28;19932;-54
2022/03/17 06:06:16;;;;;;;;;;;3.70;99.90;;;;;;4197556;28;20362;-53
2022/03/17 06:08:18;;;;;;;;;;;3.80;99.90;;;;;;4197496;28;19935;-54
2022/03/17 06:10:22;;;;;;;;;;;3.80;99.90;;;;;;4190170;28;19928;-53
2022/03/17 06:12:24;;;;;;;;;;;4.00;99.90;;;;;;4197455;28;19924;-53
2022/03/17 06:14:27;;;;;;;;;;;4.30;99.90;;;;;;4184669;28;19931;-53
2022/03/17 06:16:29;;;;;;;;;;;4.40;99.90;;;;;;4197470;28;19936;-54
2022/03/17 06:18:31;;;;;;;;;;;4.50;99.90;;;;;;4196817;28;19924;-53
2022/03/17 06:20:34;;;;;;;;;;;4.60;99.90;;;;;;4197159;28;19925;-48
2022/03/17 06:22:37;;;;;;;;;;;4.70;99.90;;;;;;4196805;28;20132;-51
2022/03/17 06:24:38;;;;;;;;;;;4.60;99.90;;;;;;4197206;28;19925;-50
2022/03/17 06:26:40;;;;;;;;;;;4.60;99.90;;;;;;4197367;28;19931;-50
2022/03/17 06:28:42;;;;;;;;;;;4.70;99.90;;;;;;4197109;28;19928;-50
2022/03/17 06:30:44;;;;;;;;;;;4.60;99.90;;;;;;4197283;28;20381;-48
2022/03/17 06:32:47;;;;;;;;;;;4.50;99.90;;;;;;4197347;28;20023;-51
2022/03/17 06:34:48;;;;;;;;;;;4.60;99.90;;;;;;4197378;28;19933;-50
2022/03/17 06:36:50;;;;;;;;;;;4.70;99.90;;;;;;4197034;28;20440;-48
2022/03/17 06:38:52;;;;;;;;;;;4.90;99.90;;;;;;4196579;28;19931;-48
2022/03/17 06:40:54;;;;;;;;;;;5.00;99.90;;;;;;4196596;28;19924;-51
2022/03/17 06:42:56;;;;;;;;;;;5.10;99.90;;;;;;4196904;28;19928;-47
2022/03/17 06:44:58;;;;;;;;;;;5.10;99.90;;;;;;4197225;28;19932;-46
2022/03/17 06:47:00;;;;;;;;;;;5.00;99.90;;;;;;4196392;28;19932;-49
2022/03/17 06:49:01;;;;;;;;;;;4.90;99.90;;;;;;4197195;28;19934;-50
2022/03/17 06:51:03;;;;;;;;;;;4.90;99.90;;;;;;4195930;28;20402;-51
2022/03/17 06:53:05;;;;;;;;;;;5.10;99.90;;;;;;4194756;28;20392;-51
2022/03/17 06:55:07;;;;;;;;;;;5.40;99.90;;;;;;4195656;28;19932;-48
2022/03/17 06:57:09;;;;;;;;;;;5.40;99.90;;;;;;4195924;28;20384;-50
2022/03/17 06:59:11;;;;;;;;;;;5.50;99.90;;;;;;4196472;28;19928;-50
2022/03/17 07:01:13;;;;;;;;;;;5.70;99.90;;;;;;4196583;28;20359;-50
2022/03/17 07:03:15;;;;;;;;;;;5.80;99.90;;;;;;4196102;28;20035;-48
2022/03/17 07:05:17;;;;;;;;;;;5.90;99.90;;;;;;4196406;28;19928;-49
2022/03/17 07:07:18;;;;;;;;;;;5.90;99.90;;;;;;4195964;28;19928;-51
2022/03/17 07:09:20;;;;;;;;;;;6.00;99.90;;;;;;4196353;28;19929;-50
2022/03/17 07:11:22;;;;;;;;;;;6.10;99.90;;;;;;4196712;28;20339;-50
2022/03/17 07:13:24;;;;;;;;;;;6.40;99.90;;;;;;4196788;28;19932;-51
2022/03/17 07:15:26;;;;;;;;;;;6.60;99.90;;;;;;4196694;28;19924;-49
2022/03/17 07:17:34;;;;;;;;;;;6.80;99.90;;;;;;4196187;28;19928;-49
2022/03/17 07:19:36;;;;;;;;;;;6.90;99.90;;;;;;4196530;28;20435;-49
2022/03/17 07:21:39;;;;;;;;;;;7.10;99.90;;;;;;4196202;28;20031;-50
2022/03/17 07:23:41;;;;;;;;;;;7.30;99.90;;;;;;4196579;28;19932;-50
2022/03/17 07:25:43;;;;;;;;;;;7.30;99.90;;;;;;4196642;28;20502;-47
2022/03/17 07:27:46;;;;;;;;;;;7.40;99.90;;;;;;4196236;28;19928;-48
2022/03/17 07:29:48;;;;;;;;;;;7.50;99.90;;;;;;4196461;28;19928;-49
2022/03/17 07:31:54;;;;;;;;;;;7.70;99.90;;;;;;4196064;28;19928;-50
2022/03/17 07:33:56;;;;;;;;;;;7.70;99.90;;;;;;4196202;28;19983;-47
2022/03/17 07:35:58;;;;;;;;;;;8.00;99.90;;;;;;4196119;28;20019;-48
2022/03/17 07:38:02;;;;;;;;;;;8.10;99.90;;;;;;4196317;28;19939;-49
2022/03/17 07:40:04;;;;;;;;;;;8.10;99.90;;;;;;4196264;28;19925;-48
2022/03/17 07:42:06;;;;;;;;;;;8.50;99.90;;;;;;4196111;28;19928;-49
2022/03/17 07:44:09;;;;;;;;;;;8.50;99.90;;;;;;4196115;28;19960;-48
2022/03/17 07:46:10;;;;;;;;;;;8.30;99.90;;;;;;4195930;28;19925;-51
2022/03/17 07:48:12;;;;;;;;;;;8.20;99.90;;;;;;4195426;28;20456;-46
2022/03/17 07:50:14;;;;;;;;;;;8.20;99.90;;;;;;4195805;28;19928;-51
2022/03/17 07:52:16;;;;;;;;;;;8.30;99.90;;;;;;4196233;28;19928;-49
2022/03/17 07:54:18;;;;;;;;;;;8.40;99.90;;;;;;4195711;28;19928;-50
2022/03/17 07:56:22;;;;;;;;;;;8.50;99.90;;;;;;4194937;28;20377;-50
2022/03/17 07:58:24;;;;;;;;;;;8.70;99.90;;;;;;4195440;28;19994;-51
2022/03/17 08:00:26;;;;;;;;;;;8.80;99.90;;;;;;4195680;28;19925;-47
2022/03/17 08:02:28;;;;;;;;;;;8.90;99.90;;;;;;4195864;28;19979;-49
2022/03/17 08:04:30;;;;;;;;;;;8.90;99.90;;;;;;4195642;28;19929;-49
2022/03/17 08:06:33;;;;;;;;;;;8.90;99.90;;;;;;4195547;28;20295;-49
2022/03/17 08:08:35;;;;;;;;;;;9.00;99.90;;;;;;4195477;28;19955;-50
2022/03/17 08:10:37;;;;;;;;;;;9.10;99.90;;;;;;4195594;28;19924;-50
2022/03/17 08:12:39;;;;;;;;;;;9.30;99.90;;;;;;4195237;28;19950;-51
2022/03/17 08:14:41;;;;;;;;;;;9.50;99.90;;;;;;4195841;28;19963;-49
2022/03/17 08:16:46;;;;;;;;;;;9.60;99.90;;;;;;4195280;28;20385;-50
2022/03/17 08:18:49;;;;;;;;;;;9.80;99.90;;;;;;4194899;28;19932;-50
2022/03/17 08:20:52;;;;;;;;;;;9.90;99.90;;;;;;4195578;28;19925;-50
2022/03/17 08:22:55;;;;;;;;;;;10.00;99.90;;;;;;4195415;28;20336;-50
2022/03/17 08:24:56;;;;;;;;;;;10.10;99.90;;;;;;4195529;28;19925;-51
2022/03/17 08:26:59;;;;;;;;;;;10.20;99.90;;;;;;4195471;28;19932;-52
2022/03/17 08:29:01;;;;;;;;;;;10.50;99.90;;;;;;4195305;28;19928;-50
2022/03/17 08:31:03;;;;;;;;;;;10.60;99.90;;;;;;4195440;28;19925;-49
2022/03/17 08:33:04;;;;;;;;;;;10.80;99.90;;;;;;4195181;28;20389;-48
2022/03/17 08:35:07;;;;;;;;;;;10.80;99.90;;;;;;4195538;28;19931;-48
2022/03/17 08:37:09;;;;;;;;;;;10.90;99.90;;;;;;4195364;28;20296;-49
2022/03/17 08:39:11;;;;;;;;;;;11.00;99.90;;;;;;4195260;28;19924;-50
2022/03/17 08:41:13;;;;;;;;;;;11.10;99.90;;;;;;4194797;28;19932;-50
2022/03/17 08:43:15;;;;;;;;;;;11.30;99.90;;;;;;4195232;28;19928;-48
2022/03/17 08:49:57;;;;;;;;;;;11.60;99.90;;;;;;4194917;28;20410;-50
2022/03/17 08:52:00;;;;;;;;;;;11.80;99.90;;;;;;4195069;28;19932;-52
2022/03/17 08:54:02;;;;;;;;;;;12.00;99.90;;;;;;4194800;28;20570;-51
2022/03/17 08:56:04;;;;;;;;;;;12.00;99.90;;;;;;4195182;28;20339;-50
2022/03/17 08:58:06;;;;;;;;;;;12.10;99.90;;;;;;4194675;28;20395;-51
2022/03/17 09:00:09;;;;;;;;;;;12.20;99.90;;;;;;4194842;28;19924;-48
2022/03/17 09:02:12;;;;;;;;;;;12.30;99.90;;;;;;4193474;28;20299;-51
2022/03/17 09:04:14;;;;;;;;;;;12.40;99.90;;;;;;4195004;28;20380;-50
2022/03/17 09:06:16;;;;;;;;;;;12.70;99.90;;;;;;4194752;28;19928;-51
2022/03/17 09:08:18;;;;;;;;;;;12.60;99.90;;;;;;4194656;28;20289;-52
2022/03/17 09:10:22;;;;;;;;;;;12.70;99.90;;;;;;4195227;28;20394;-51
2022/03/17 09:12:23;;;;;;;;;;;12.70;99.90;;;;;;4194773;28;19978;-51
2022/03/17 09:14:25;;;;;;;;;;;12.70;99.90;;;;;;4195046;28;19935;-50
2022/03/17 09:16:27;;;;;;;;;;;12.90;99.90;;;;;;4194751;28;20346;-49
2022/03/17 09:18:29;;;;;;;;;;;13.00;99.90;;;;;;4194434;28;19932;-48
2022/03/17 09:20:50;;;;;;;;;;;13.00;99.90;;;;;;4194298;28;19939;-51
2022/03/17 09:22:52;;;;;;;;;;;13.00;99.90;;;;;;4193434;28;19932;-50
2022/03/17 09:24:54;;;;;;;;;;;13.10;99.90;;;;;;4195042;28;19931;-50
2022/03/17 09:26:57;;;;;;;;;;;13.10;99.90;;;;;;4194776;28;19931;-51
2022/03/17 09:28:59;;;;;;;;;;;13.10;99.90;;;;;;4194607;28;19935;-51
2022/03/17 09:31:00;;;;;;;;;;;13.10;99.90;;;;;;4195038;28;19925;-51
2022/03/17 09:33:04;;;;;;;;;;;13.10;99.90;;;;;;4194789;28;19970;-52
2022/03/17 09:35:07;;;;;;;;;;;13.30;99.90;;;;;;4194964;28;20030;-48
2022/03/17 09:37:08;;;;;;;;;;;13.40;99.90;;;;;;4194715;28;19928;-50
2022/03/17 09:41:33;;;;;;;;;;;13.50;99.90;;;;;;4180234;28;19931;-51
2022/03/17 09:43:35;;;;;;;;;;;13.50;99.90;;;;;;4193664;28;19924;-51
2022/03/17 09:45:39;;;;;;;;;;;13.70;99.90;;;;;;4194252;28;19924;-50
2022/03/17 09:47:42;;;;;;;;;;;13.80;99.90;;;;;;4194412;28;19924;-50
2022/03/17 09:49:44;;;;;;;;;;;13.80;99.90;;;;;;4187185;28;19924;-52
2022/03/17 09:51:46;;;;;;;;;;;13.90;99.90;;;;;;4194646;28;19925;-51
2022/03/17 09:53:52;;;;;;;;;;;14.10;99.90;;;;;;4194486;28;19924;-52
2022/03/17 09:55:53;;;;;;;;;;;14.30;99.90;;;;;;4194821;28;20452;-50
2022/03/17 09:57:56;;;;;;;;;;;14.40;99.90;;;;;;4194531;28;19931;-52
2022/03/17 09:59:58;;;;;;;;;;;14.50;99.90;;;;;;4194493;28;20309;-49
2022/03/17 10:02:01;;;;;;;;;;;14.60;99.90;;;;;;4194824;28;19924;-52
2022/03/17 10:04:04;;;;;;;;;;;14.70;99.90;;;;;;4194300;28;19925;-52
2022/03/17 10:06:06;;;;;;;;;;;14.80;99.90;;;;;;4194717;28;19928;-49
2022/03/17 10:08:08;;;;;;;;;;;14.70;99.90;;;;;;4194354;28;19932;-50
2022/03/17 10:10:11;;;;;;;;;;;14.90;99.90;;;;;;4194343;28;19928;-51
2022/03/17 10:12:14;;;;;;;;;;;14.90;99.90;;;;;;4194657;28;20394;-51
2022/03/17 10:14:34;;;;;;;;;;;14.90;99.90;;;;;;4195785;28;19929;-51
2022/03/17 10:16:37;;;;;;;;;;;14.90;99.90;;;;;;4197269;28;19982;-52
2022/03/17 10:18:39;;;;;;;;;;;14.70;99.90;;;;;;4197120;28;20447;-51
2022/03/17 10:20:41;;;;;;;;;;;14.60;99.90;;;;;;4197222;28;19936;-48
2022/03/17 10:22:51;;;;;;;;;;;14.70;99.90;;;;;;4197612;28;20403;-49
2022/03/17 10:24:53;;;;;;;;;;;14.60;99.90;;;;;;4196606;28;19930;-51
2022/03/17 10:26:57;;;;;;;;;;;14.60;99.90;;;;;;4197379;28;19924;-49
2022/03/17 10:29:06;;;;;;;;;;;14.70;99.90;;;;;;4196888;28;19928;-52
2022/03/17 10:31:08;;;;;;;;;;;14.90;99.90;;;;;;4197249;28;19946;-52
2022/03/17 10:33:18;;;;;;;;;;;14.80;99.90;;;;;;4197299;28;20036;-51
2022/03/17 10:35:36;;;;;;;;;;;14.80;99.90;;;;;;4197056;28;20403;-52
2022/03/17 10:37:42;;;;;;;;;;;14.80;99.90;;;;;;4188375;28;19986;-52
2022/03/17 10:39:48;;;;;;;;;;;14.80;99.90;;;;;;4197074;28;19924;-52
2022/03/17 10:41:50;;;;;;;;;;;14.80;99.90;;;;;;4196822;28;19962;-50
2022/03/17 10:43:58;;;;;;;;;;;14.70;99.90;;;;;;4197148;28;19924;-52
2022/03/17 10:46:03;;;;;;;;;;;14.60;99.90;;;;;;4196908;28;19929;-51
2022/03/17 10:48:05;;;;;;;;;;;15.00;99.90;;;;;;4196819;28;20037;-51
2022/03/17 10:50:16;;;;;;;;;;;15.20;99.90;;;;;;4196824;28;19998;-51
2022/03/17 10:52:17;;;;;;;;;;;15.30;99.90;;;;;;4196837;28;19935;-49
2022/03/17 10:54:19;;;;;;;;;;;15.30;99.90;;;;;;4197106;28;19936;-52
2022/03/17 10:56:22;;;;;;;;;;;15.30;99.90;;;;;;4196764;28;19931;-51
2022/03/17 10:58:24;;;;;;;;;;;15.30;99.90;;;;;;4196953;28;19931;-50
2022/03/17 11:00:27;;;;;;;;;;;15.40;99.90;;;;;;4196349;28;20120;-51
2022/03/17 11:02:32;;;;;;;;;;;15.40;99.90;;;;;;4196802;28;19932;-51
2022/03/17 11:04:35;;;;;;;;;;;15.50;99.90;;;;;;4196810;28;20768;-51
2022/03/17 11:06:38;;;;;;;;;;;15.50;99.90;;;;;;4196852;28;19951;-52
2022/03/17 11:08:45;;;;;;;;;;;15.30;99.90;;;;;;4193936;28;20015;-50
2022/03/17 11:10:49;;;;;;;;;;;15.50;99.90;;;;;;4193641;28;19986;-49
2022/03/17 11:12:51;;;;;;;;;;;15.30;99.90;;;;;;4193729;28;19931;-51
2022/03/17 11:14:53;;;;;;;;;;;14.90;99.90;;;;;;4189690;28;19928;-49
2022/03/17 11:16:56;;;;;;;;;;;15.00;99.90;;;;;;4193683;28;19931;-50
2022/03/17 11:18:58;;;;;;;;;;;15.30;99.90;;;;;;4200315;28;19959;-51
2022/03/17 11:21:16;;;;;;;;;;;15.40;99.90;;;;;;4192574;28;19928;-50
2022/03/17 11:23:20;;;;;;;;;;;15.50;99.90;;;;;;4192070;28;19981;-50
2022/03/17 11:25:25;;;;;;;;;;;15.30;99.90;;;;;;4192160;28;19940;-49
2022/03/17 11:27:27;;;;;;;;;;;15.30;99.90;;;;;;4188337;28;19932;-50
2022/03/17 11:29:37;;;;;;;;;;;15.40;99.90;;;;;;4192973;28;19936;-50
2022/03/17 11:31:51;;;;;;;;;;;15.30;99.90;;;;;;4193040;28;19930;-51
2022/03/17 11:33:58;;;;;;;;;;;15.30;99.90;;;;;;4190646;28;20277;-50
2022/03/17 11:36:02;;;;;;;;;;;15.80;99.90;;;;;;4196522;28;19974;-50
2022/03/17 11:38:17;;;;;;;;;;;16.20;99.90;;;;;;4192387;28;20387;-48
2022/03/17 11:40:19;;;;;;;;;;;16.20;99.50;;;;;;4187811;28;20043;-51
2022/03/17 11:42:28;;;;;;;;;;;16.00;99.70;;;;;;4195657;28;19964;-51
2022/03/17 11:44:32;;;;;;;;;;;15.90;99.00;;;;;;4195605;28;19940;-51
2022/03/17 11:46:36;;;;;;;;;;;16.10;99.20;;;;;;4194512;28;19925;-51
2022/03/17 11:48:39;;;;;;;;;;;16.20;99.90;;;;;;4194564;28;19928;-51
2022/03/17 11:50:43;;;;;;;;;;;16.30;98.70;;;;;;4195964;28;20020;-50
2022/03/17 11:52:49;;;;;;;;;;;16.70;99.90;;;;;;4188339;28;20022;-50
2022/03/17 11:55:11;;;;;;;;;;;16.90;99.90;;;;;;4183659;28;19929;-50
2022/03/17 11:57:14;;;;;;;;;;;16.80;98.50;;;;;;4192614;28;19982;-48
2022/03/17 11:59:19;;;;;;;;;;;16.30;98.50;;;;;;4195853;28;19947;-51
2022/03/17 12:01:27;;;;;;;;;;;15.90;98.90;;;;;;4195583;28;19925;-49
2022/03/17 12:03:37;;;;;;;;;;;16.20;99.30;;;;;;4195637;28;20384;-51
2022/03/17 12:05:40;;;;;;;;;;;15.80;99.40;;;;;;4195136;28;19983;-52
2022/03/17 12:07:46;;;;;;;;;;;15.70;99.90;;;;;;4195794;28;19929;-52
2022/03/17 12:09:48;;;;;;;;;;;15.70;99.90;;;;;;4195722;28;20374;-51
2022/03/17 12:11:51;;;;;;;;;;;16.00;99.90;;;;;;4195363;28;19924;-52
2022/03/17 12:14:14;;;;;;;;;;;16.10;99.30;;;;;;4195326;28;19928;-51
2022/03/17 12:16:37;;;;;;;;;;;16.40;99.90;;;;;;4194101;28;19935;-52
2022/03/17 12:19:00;;;;;;;;;;;16.00;98.90;;;;;;4193763;28;19962;-51
2022/03/17 12:21:02;;;;;;;;;;;16.00;99.40;;;;;;4191096;28;20239;-50